createdAt,value
2019-03-23T00:01:45.295Z,78.30
2019-03-23T00:06:50.344Z,79.10
2019-03-23T00:11:55.086Z,79.50
2019-03-23T00:16:59.804Z,79.00
2019-03-23T00:22:04.853Z,79.50
2019-03-23T00:27:09.560Z,79.60
2019-03-23T00:32:14.360Z,79.50
2019-03-23T00:37:19.103Z,80.30
2019-03-23T00:42:23.924Z,79.70
2019-03-23T00:47:28.892Z,78.80
2019-03-23T00:52:33.917Z,77.80
2019-03-23T00:57:38.687Z,77.50
2019-03-23T01:02:43.733Z,77.30
2019-03-23T01:07:48.781Z,76.90
2019-03-23T01:12:53.701Z,76.80
2019-03-23T01:17:58.575Z,76.80
2019-03-23T01:23:03.622Z,75.80
2019-03-23T01:28:08.340Z,74.70
2019-03-23T01:33:14.334Z,73.00
2019-03-23T01:38:19.049Z,73.40
2019-03-23T01:43:23.816Z,72.60
2019-03-23T01:48:28.868Z,72.30
2019-03-23T01:53:33.586Z,72.40
2019-03-23T01:58:38.349Z,72.30
2019-03-23T02:03:43.170Z,72.00
2019-03-23T02:08:48.141Z,72.00
2019-03-23T02:13:53.193Z,72.00
2019-03-23T02:18:58.009Z,72.30
2019-03-23T02:24:02.654Z,73.40
2019-03-23T02:29:07.419Z,72.80
2019-03-23T02:34:12.166Z,72.50
2019-03-23T02:39:16.770Z,71.50
2019-03-23T02:44:21.642Z,71.80
2019-03-23T02:49:26.698Z,71.50
2019-03-23T02:54:33.278Z,71.80
2019-03-23T02:59:38.017Z,71.00
2019-03-23T03:04:42.759Z,71.00
2019-03-23T03:09:47.510Z,70.70
2019-03-23T03:14:52.552Z,70.50
2019-03-23T03:19:57.292Z,69.10
2019-03-23T03:25:02.346Z,69.80
2019-03-23T03:30:09.927Z,70.30
2019-03-23T03:35:14.897Z,70.50
2019-03-23T03:40:19.818Z,69.90
2019-03-23T03:45:28.345Z,70.10
2019-03-23T03:50:34.222Z,69.70
2019-03-23T03:55:40.905Z,70.20
2019-03-23T04:00:45.645Z,70.30
2019-03-23T04:05:50.492Z,70.10
2019-03-23T04:10:55.463Z,70.00
2019-03-23T04:16:00.211Z,69.30
2019-03-23T04:21:04.949Z,69.60
2019-03-23T04:26:09.686Z,69.90
2019-03-23T04:31:14.431Z,70.40
2019-03-23T04:36:19.146Z,71.10
2019-03-23T04:41:23.916Z,70.70
2019-03-23T04:46:28.941Z,70.60
2019-03-23T04:51:34.009Z,69.70
2019-03-23T04:56:39.377Z,69.90
2019-03-23T05:01:43.922Z,69.80
2019-03-23T05:06:48.637Z,69.60
2019-03-23T05:11:53.595Z,69.80
2019-03-23T05:16:58.337Z,70.00
2019-03-23T05:22:03.081Z,70.40
2019-03-23T05:27:07.821Z,71.10
2019-03-23T05:32:12.638Z,71.20
2019-03-23T05:37:17.617Z,71.90
2019-03-23T05:42:22.352Z,72.20
2019-03-23T05:47:27.091Z,72.90
2019-03-23T05:52:32.140Z,73.40
2019-03-23T05:57:37.191Z,73.20
2019-03-23T06:02:42.238Z,73.10
2019-03-23T06:07:46.980Z,72.50
2019-03-23T06:12:52.029Z,72.10
2019-03-23T06:17:57.078Z,72.50
2019-03-23T06:23:01.820Z,73.00
2019-03-23T06:28:06.541Z,73.30
2019-03-23T06:33:11.278Z,74.10
2019-03-23T06:38:16.418Z,74.80
2019-03-23T06:43:21.710Z,75.60
2019-03-23T06:48:26.451Z,77.00
2019-03-23T06:53:31.499Z,77.30
2019-03-23T06:58:36.242Z,78.90
2019-03-23T07:03:40.983Z,80.30
2019-03-23T07:08:45.724Z,80.70
2019-03-23T07:13:50.472Z,80.80
2019-03-23T07:18:55.518Z,81.70
2019-03-23T07:24:00.271Z,81.90
2019-03-23T07:29:05.306Z,82.40
2019-03-23T07:34:10.126Z,81.80
2019-03-23T07:39:14.872Z,82.20
2019-03-23T07:44:19.839Z,82.10
2019-03-23T07:49:24.581Z,82.10
2019-03-23T07:54:29.297Z,81.30
2019-03-23T07:59:33.942Z,80.70
2019-03-23T08:04:38.807Z,80.90
2019-03-23T08:09:43.960Z,80.30
2019-03-23T08:14:48.906Z,81.00
2019-03-23T08:19:53.954Z,80.30
2019-03-23T08:24:59.007Z,80.60
2019-03-23T08:30:05.279Z,80.90
2019-03-23T08:35:10.028Z,80.70
2019-03-23T08:40:15.074Z,80.50
2019-03-23T08:45:20.123Z,80.30
2019-03-23T08:50:24.894Z,80.00
2019-03-23T08:55:29.991Z,79.90
2019-03-23T09:00:34.964Z,79.30
2019-03-23T09:05:39.701Z,79.50
2019-03-23T09:10:44.454Z,79.00
2019-03-23T09:15:49.262Z,78.80
2019-03-23T09:20:54.012Z,77.30
2019-03-23T09:25:58.976Z,76.00
2019-03-23T09:31:03.801Z,75.50
2019-03-23T09:36:08.784Z,74.00
2019-03-23T09:41:13.815Z,73.40
2019-03-23T09:46:18.872Z,74.60
2019-03-23T09:51:23.914Z,73.10
2019-03-23T09:56:28.756Z,72.80
2019-03-23T10:01:34.020Z,74.40
2019-03-23T10:06:38.753Z,73.10
2019-03-23T10:11:43.500Z,74.30
2019-03-23T10:16:48.546Z,74.00
2019-03-23T10:21:53.285Z,73.80
2019-03-23T10:26:58.109Z,74.50
2019-03-23T10:32:03.079Z,73.80
2019-03-23T10:37:08.133Z,74.40
2019-03-23T10:42:12.848Z,73.10
2019-03-23T10:47:17.742Z,72.80
2019-03-23T10:52:22.982Z,72.30
2019-03-23T10:57:28.014Z,72.10
2019-03-23T11:02:32.755Z,70.70
2019-03-23T11:07:37.580Z,71.20
2019-03-23T11:12:42.871Z,70.10
2019-03-23T11:17:48.599Z,71.00
2019-03-23T11:22:53.576Z,69.30
2019-03-23T11:27:58.617Z,69.40
2019-03-23T11:33:03.688Z,68.00
2019-03-23T11:38:08.411Z,68.40
2019-03-23T11:43:13.152Z,67.80
2019-03-23T11:48:17.891Z,68.70
2019-03-23T11:53:22.631Z,67.10
2019-03-23T11:58:27.377Z,67.30
2019-03-23T12:03:32.425Z,66.40
2019-03-23T12:08:37.470Z,64.60
2019-03-23T12:13:42.213Z,64.40
2019-03-23T12:18:46.932Z,64.20
2019-03-23T12:23:51.703Z,63.70
2019-03-23T12:28:56.745Z,62.50
2019-03-23T12:34:01.490Z,62.40
2019-03-23T12:39:06.844Z,63.60
2019-03-23T12:44:11.892Z,61.80
2019-03-23T12:49:16.647Z,61.40
2019-03-23T12:54:21.690Z,61.80
2019-03-23T12:59:26.471Z,61.70
2019-03-23T13:04:31.762Z,61.40
2019-03-23T13:09:36.830Z,61.10
2019-03-23T13:14:41.573Z,61.10
2019-03-23T13:19:46.624Z,61.60
2019-03-23T13:24:51.377Z,60.70
2019-03-23T13:29:56.185Z,59.70
2019-03-23T13:35:01.193Z,60.60
2019-03-23T13:40:08.134Z,59.60
2019-03-23T13:45:13.670Z,58.90
2019-03-23T13:50:26.215Z,59.50
2019-03-23T13:55:33.930Z,59.60
2019-03-23T14:00:38.992Z,60.00
2019-03-23T14:05:43.717Z,59.40
2019-03-23T14:10:48.481Z,58.80
2019-03-23T14:15:53.297Z,60.30
2019-03-23T14:20:58.268Z,59.00
2019-03-23T14:26:02.993Z,59.80
2019-03-23T14:31:07.731Z,59.90
2019-03-23T14:36:12.492Z,59.10
2019-03-23T14:41:18.237Z,59.10
2019-03-23T14:46:23.204Z,60.20
2019-03-23T14:51:27.946Z,59.10
2019-03-23T14:56:33.011Z,60.50
2019-03-23T15:01:38.734Z,59.70
2019-03-23T15:06:43.618Z,59.50
2019-03-23T15:11:48.449Z,59.70
2019-03-23T15:16:53.270Z,60.60
2019-03-23T15:21:58.160Z,61.00
2019-03-23T15:27:02.983Z,60.60
2019-03-23T15:32:07.726Z,61.10
2019-03-23T15:37:12.545Z,61.50
2019-03-23T15:42:24.399Z,62.40
2019-03-23T15:47:23.795Z,62.80
2019-03-23T15:52:28.535Z,63.60
2019-03-23T15:57:33.276Z,63.60
2019-03-23T16:02:37.898Z,64.20
2019-03-23T16:07:43.150Z,65.50
2019-03-23T16:12:48.093Z,66.10
2019-03-23T16:17:54.092Z,66.60
2019-03-23T16:22:59.136Z,67.00
2019-03-23T16:28:04.195Z,67.20
2019-03-23T16:33:08.932Z,67.90
2019-03-23T16:38:13.668Z,68.90
2019-03-23T16:43:18.421Z,69.50
2019-03-23T16:48:23.458Z,70.50
2019-03-23T16:53:29.206Z,70.80
2019-03-23T16:58:33.950Z,71.40
2019-03-23T17:03:38.919Z,71.80
2019-03-23T17:08:44.025Z,69.60
2019-03-23T17:13:49.113Z,71.70
2019-03-23T17:18:54.063Z,72.50
2019-03-23T17:23:58.803Z,73.60
2019-03-23T17:29:03.850Z,74.50
2019-03-23T17:34:08.902Z,73.70
2019-03-23T17:39:13.722Z,74.30
2019-03-23T17:44:18.671Z,73.90
2019-03-23T17:49:23.739Z,74.40
2019-03-23T17:54:28.483Z,74.70
2019-03-23T17:59:34.762Z,75.00
2019-03-23T18:04:39.813Z,74.70
2019-03-23T18:09:44.627Z,74.30
2019-03-23T18:14:49.597Z,74.30
2019-03-23T18:19:54.420Z,72.80
2019-03-23T18:24:59.401Z,72.40
2019-03-23T18:30:07.817Z,72.50
2019-03-23T18:35:12.866Z,72.50
2019-03-23T18:40:17.917Z,73.70
2019-03-23T18:45:22.657Z,73.60
2019-03-23T18:50:27.705Z,73.60
2019-03-23T18:55:32.446Z,72.90
2019-03-23T19:00:40.137Z,72.60
2019-03-23T19:05:44.907Z,72.90
2019-03-23T19:10:50.361Z,73.80
2019-03-23T19:15:55.113Z,74.50
2019-03-23T19:20:59.842Z,75.10
2019-03-23T19:26:04.901Z,76.30
2019-03-23T19:31:09.638Z,76.00
2019-03-23T19:36:14.683Z,75.50
2019-03-23T19:41:19.427Z,76.30
2019-03-23T19:46:24.473Z,77.30
2019-03-23T19:51:29.256Z,77.60
2019-03-23T19:56:34.038Z,77.60
2019-03-23T20:01:39.007Z,76.40
2019-03-23T20:06:43.721Z,76.70
2019-03-23T20:11:48.491Z,77.80
2019-03-23T20:16:53.409Z,77.20
2019-03-23T20:21:58.300Z,77.20
2019-03-23T20:27:03.363Z,79.00
2019-03-23T20:32:08.377Z,79.10
2019-03-23T20:37:13.430Z,79.50
2019-03-23T20:42:18.476Z,79.10
2019-03-23T20:47:23.298Z,79.30
2019-03-23T20:52:29.494Z,78.30
2019-03-23T20:57:37.650Z,78.80
2019-03-23T21:02:40.529Z,78.20
2019-03-23T21:07:45.571Z,78.70
2019-03-23T21:12:50.384Z,79.40
2019-03-23T21:17:55.355Z,80.00
2019-03-23T21:23:00.178Z,80.80
2019-03-23T21:28:05.452Z,81.10
2019-03-23T21:33:10.273Z,82.00
2019-03-23T21:38:15.243Z,82.20
2019-03-23T21:43:20.063Z,82.60
2019-03-23T21:48:25.034Z,83.50
2019-03-23T21:53:30.082Z,83.60
2019-03-23T21:58:34.828Z,83.80
2019-03-23T22:03:39.542Z,84.20
2019-03-23T22:08:44.310Z,84.60
2019-03-23T22:13:49.237Z,84.80
2019-03-23T22:18:54.097Z,85.20
2019-03-23T22:23:59.147Z,85.20
2019-03-23T22:29:04.199Z,85.10
2019-03-23T22:34:08.938Z,85.30
2019-03-23T22:39:13.675Z,84.90
2019-03-23T22:44:18.321Z,85.40
2019-03-23T22:49:23.163Z,85.90
2019-03-23T22:54:27.905Z,85.90
2019-03-23T22:59:32.623Z,86.00
2019-03-23T23:04:37.776Z,85.30
2019-03-23T23:09:42.728Z,85.00
2019-03-23T23:14:47.487Z,85.10
2019-03-23T23:19:52.090Z,85.20
2019-03-23T23:24:56.842Z,85.60
2019-03-23T23:30:01.711Z,86.00
2019-03-23T23:35:09.836Z,86.10
2019-03-23T23:40:15.291Z,85.90
2019-03-23T23:45:22.084Z,86.00
2019-03-23T23:50:27.130Z,86.70
2019-03-23T23:55:31.847Z,87.00
